Time;durP1;ratioP1;P1;durP2;ratioP2;P2;SDS_P1;SDS_P2;PMS_P1;PMS_P2;Temp;Humidity;BMP_temperature;BMP_pressure;BME280_temperature;BME280_humidity;BME280_pressure;Samples;Min_cycle;Max_cycle;Signal;HPM_P1;HPM_P2
2024/01/21 00:01:16;;;;;;;10.40;6.75;;;8.70;89.80;;;;;;5093390;28;20024;-44
2024/01/21 00:03:42;;;;;;;10.18;6.57;;;8.70;90.10;;;;;;5095084;28;20040;-42
2024/01/21 00:06:08;;;;;;;10.15;6.22;;;8.60;90.00;;;;;;5093112;28;20028;-44
2024/01/21 00:08:33;;;;;;;9.52;6.03;;;8.60;90.00;;;;;;5092819;28;20020;-40
2024/01/21 00:10:59;;;;;;;9.73;6.35;;;8.60;90.00;;;;;;5093258;28;20031;-44
2024/01/21 00:13:24;;;;;;;11.13;6.90;;;8.50;90.00;;;;;;5094293;28;20020;-44
2024/01/21 00:15:50;;;;;;;10.43;6.38;;;8.50;90.10;;;;;;5093451;28;20024;-40
2024/01/21 00:18:16;;;;;;;9.43;6.40;;;8.50;90.10;;;;;;5092722;28;20111;-42
2024/01/21 00:20:42;;;;;;;10.93;6.38;;;8.50;90.20;;;;;;5092798;28;20020;-43
2024/01/21 00:23:08;;;;;;;11.95;6.78;;;8.40;90.20;;;;;;5092189;28;20039;-42
2024/01/21 00:25:34;;;;;;;8.32;6.05;;;8.40;90.20;;;;;;5092558;28;20464;-43
2024/01/21 00:28:00;;;;;;;8.82;6.07;;;8.40;90.30;;;;;;5092529;28;20133;-39
2024/01/21 00:30:26;;;;;;;9.50;6.40;;;8.40;90.60;;;;;;5092523;28;20472;-44
2024/01/21 00:32:52;;;;;;;9.07;6.10;;;8.30;90.30;;;;;;5092378;28;20467;-43
2024/01/21 00:35:17;;;;;;;9.95;6.40;;;8.30;90.40;;;;;;5092324;28;20023;-42
2024/01/21 00:37:43;;;;;;;10.18;6.13;;;8.30;90.40;;;;;;5080688;28;20064;-43
2024/01/21 00:40:09;;;;;;;10.40;6.28;;;8.30;90.40;;;;;;5092181;28;20032;-43
2024/01/21 00:42:35;;;;;;;11.00;6.35;;;8.30;90.40;;;;;;5092757;28;20017;-44
2024/01/21 00:45:01;;;;;;;11.20;7.20;;;8.20;90.50;;;;;;5093203;28;20032;-41
2024/01/21 00:47:27;;;;;;;11.70;6.85;;;8.20;91.40;;;;;;5092397;28;20073;-44
2024/01/21 00:49:52;;;;;;;9.48;6.45;;;8.40;91.80;;;;;;5093663;28;20440;-43
2024/01/21 00:52:18;;;;;;;9.45;6.88;;;8.90;91.50;;;;;;5092221;28;20478;-43
2024/01/21 00:54:44;;;;;;;12.20;7.38;;;9.50;90.90;;;;;;5093508;28;20024;-41
2024/01/21 00:57:09;;;;;;;11.43;7.07;;;10.10;89.20;;;;;;5092841;28;20040;-43
2024/01/21 00:59:35;;;;;;;10.57;6.68;;;10.50;86.90;;;;;;5092096;28;20389;-43
2024/01/21 01:02:01;;;;;;;9.65;6.40;;;10.60;85.80;;;;;;5091948;28;20024;-44
2024/01/21 01:04:26;;;;;;;11.40;7.10;;;10.60;85.30;;;;;;5091922;28;20034;-41
2024/01/21 01:06:52;;;;;;;9.20;6.13;;;10.50;85.10;;;;;;5090736;28;20432;-42
2024/01/21 01:09:17;;;;;;;10.07;6.57;;;10.30;85.10;;;;;;5092641;28;20024;-40
2024/01/21 01:11:43;;;;;;;10.43;6.60;;;10.20;85.30;;;;;;5091780;28;20052;-44
2024/01/21 01:14:08;;;;;;;10.80;6.95;;;10.10;85.60;;;;;;5091764;28;20482;-44
2024/01/21 01:16:41;;;;;;;10.18;6.40;;;10.00;87.60;;;;;;5093410;28;20020;-43
2024/01/21 01:19:07;;;;;;;10.30;6.65;;;10.30;88.00;;;;;;5091655;28;20028;-42
2024/01/21 01:21:33;;;;;;;9.88;6.47;;;10.60;86.20;;;;;;5091742;28;20031;-41
2024/01/21 01:23:58;;;;;;;10.30;6.80;;;10.70;84.80;;;;;;5092315;28;20397;-42
2024/01/21 01:26:24;;;;;;;11.68;6.55;;;10.70;84.20;;;;;;5091970;28;20028;-44
2024/01/21 01:28:52;;;;;;;10.50;6.20;;;10.60;84.10;;;;;;5091557;28;20028;-39
2024/01/21 01:31:21;;;;;;;8.10;5.90;;;10.50;84.20;;;;;;5091555;28;20019;-43
2024/01/21 01:33:47;;;;;;;9.60;6.07;;;10.30;84.50;;;;;;5091572;28;20024;-44
2024/01/21 01:36:12;;;;;;;10.50;6.50;;;10.20;84.80;;;;;;5091429;28;20020;-43
2024/01/21 01:38:39;;;;;;;9.25;5.88;;;10.10;86.70;;;;;;5091133;28;20016;-40
2024/01/21 01:41:05;;;;;;;10.40;5.95;;;10.30;87.90;;;;;;5091475;28;20031;-44
2024/01/21 01:43:30;;;;;;;11.40;6.28;;;10.70;85.70;;;;;;5091528;28;20016;-39
2024/01/21 01:46:00;;;;;;;9.10;6.43;;;10.80;84.20;;;;;;5091382;28;20031;-44
2024/01/21 01:48:27;;;;;;;9.48;5.88;;;10.80;83.70;;;;;;5091153;28;20046;-43
2024/01/21 01:50:53;;;;;;;8.52;5.97;;;10.70;83.60;;;;;;5091323;28;20032;-43
2024/01/21 01:53:19;;;;;;;10.95;6.15;;;10.60;83.80;;;;;;5092383;28;20028;-40
2024/01/21 01:55:45;;;;;;;7.85;5.28;;;10.40;84.10;;;;;;5091267;28;20091;-44
2024/01/21 01:58:15;;;;;;;8.52;5.72;;;10.30;84.30;;;;;;5091149;28;20115;-44
2024/01/21 02:00:41;;;;;;;8.60;5.75;;;10.20;86.30;;;;;;5092263;28;20024;-43
2024/01/21 02:03:08;;;;;;;8.57;5.90;;;10.50;86.70;;;;;;5091080;28;20027;-44
2024/01/21 02:05:34;;;;;;;8.00;5.65;;;10.80;85.00;;;;;;5091136;28;20367;-43
2024/01/21 02:08:00;;;;;;;9.68;5.63;;;10.90;83.70;;;;;;5091279;28;20051;-43
2024/01/21 02:10:29;;;;;;;8.27;5.38;;;10.90;83.30;;;;;;5091080;28;20028;-43
2024/01/21 02:12:55;;;;;;;10.40;5.72;;;10.80;83.20;;;;;;5091065;28;20016;-43
2024/01/21 02:15:21;;;;;;;8.85;5.72;;;10.60;83.40;;;;;;5091044;28;20028;-39
2024/01/21 02:17:47;;;;;;;9.00;5.53;;;10.50;83.70;;;;;;5090928;28;20493;-44
2024/01/21 02:20:13;;;;;;;10.02;6.13;;;10.30;83.90;;;;;;5091084;28;20078;-44
2024/01/21 02:22:40;;;;;;;8.07;5.68;;;10.30;86.00;;;;;;5090483;28;20028;-42
2024/01/21 02:25:09;;;;;;;8.00;5.65;;;10.60;86.30;;;;;;5090944;28;20107;-44
2024/01/21 02:27:36;;;;;;;8.55;5.82;;;10.90;84.60;;;;;;5090921;28;20070;-39
2024/01/21 02:30:03;;;;;;;8.75;5.43;;;11.00;83.30;;;;;;5091388;28;20024;-44
2024/01/21 02:32:29;;;;;;;7.88;5.00;;;10.90;82.80;;;;;;5091086;28;20482;-43
2024/01/21 02:34:55;;;;;;;6.47;4.90;;;10.80;82.80;;;;;;5090836;28;20066;-41
2024/01/21 02:37:20;;;;;;;7.03;4.95;;;10.60;83.00;;;;;;5090806;28;20020;-43
2024/01/21 02:39:46;;;;;;;7.43;4.75;;;10.50;83.30;;;;;;5090790;28;20523;-43
2024/01/21 02:42:12;;;;;;;6.65;4.68;;;10.40;83.60;;;;;;5091465;28;20108;-40
2024/01/21 02:44:38;;;;;;;7.07;4.57;;;10.30;85.60;;;;;;5090671;28;20428;-43
2024/01/21 02:47:04;;;;;;;9.05;4.95;;;10.60;85.90;;;;;;5094591;28;20482;-43
2024/01/21 02:49:30;;;;;;;8.48;5.40;;;10.90;84.10;;;;;;5094449;28;20470;-41
2024/01/21 02:51:56;;;;;;;6.97;5.03;;;11.00;83.00;;;;;;5094573;28;20030;-44
2024/01/21 02:54:22;;;;;;;6.85;5.03;;;11.00;82.60;;;;;;5094431;28;20020;-43
2024/01/21 02:56:48;;;;;;;7.47;5.13;;;10.80;82.50;;;;;;5095490;28;20543;-40
2024/01/21 02:59:14;;;;;;;8.35;4.75;;;10.70;82.70;;;;;;5094217;28;20036;-43
2024/01/21 03:01:43;;;;;;;6.93;4.50;;;10.60;83.00;;;;;;5094299;28;20028;-43
2024/01/21 03:04:12;;;;;;;8.43;5.28;;;10.40;83.40;;;;;;5094271;28;20057;-43
2024/01/21 03:06:38;;;;;;;7.22;4.00;;;10.30;85.40;;;;;;5094716;28;20028;-44
2024/01/21 03:09:04;;;;;;;7.90;5.43;;;10.60;85.70;;;;;;5094103;28;20020;-43
2024/01/21 03:11:31;;;;;;;6.68;4.60;;;11.00;84.00;;;;;;5094134;28;20466;-40
2024/01/21 03:13:57;;;;;;;8.20;4.60;;;11.00;82.70;;;;;;5093939;28;20256;-44
2024/01/21 03:16:22;;;;;;;6.57;4.68;;;11.00;82.30;;;;;;5094047;28;20024;-40
2024/01/21 03:18:48;;;;;;;6.18;4.45;;;10.90;82.30;;;;;;5093864;28;20032;-44
2024/01/21 03:21:14;;;;;;;6.97;4.72;;;10.70;82.50;;;;;;5093968;28;20051;-44
2024/01/21 03:23:39;;;;;;;7.13;4.40;;;10.60;82.80;;;;;;5093792;28;20040;-44
2024/01/21 03:26:05;;;;;;;5.72;4.20;;;10.50;83.20;;;;;;5093882;28;20099;-41
2024/01/21 03:28:30;;;;;;;6.10;4.20;;;10.30;85.00;;;;;;5093404;28;20082;-43
2024/01/21 03:30:56;;;;;;;7.88;4.82;;;10.60;85.30;;;;;;5093994;28;20111;-43
2024/01/21 03:33:22;;;;;;;7.03;4.45;;;11.00;83.70;;;;;;5094111;28;20477;-44
2024/01/21 03:35:47;;;;;;;6.32;4.25;;;11.00;82.60;;;;;;5093682;28;20059;-44
2024/01/21 03:38:13;;;;;;;6.22;4.25;;;11.00;82.10;;;;;;5093514;28;20047;-43
2024/01/21 03:40:39;;;;;;;5.97;4.32;;;10.80;82.10;;;;;;5093570;28;20028;-43
2024/01/21 03:43:04;;;;;;;6.95;4.47;;;10.70;82.30;;;;;;5093389;28;20042;-43
2024/01/21 03:45:30;;;;;;;7.00;4.22;;;10.60;82.70;;;;;;5093424;28;20062;-43
2024/01/21 03:47:56;;;;;;;6.38;4.28;;;10.40;83.00;;;;;;5093290;28;20398;-43
2024/01/21 03:50:22;;;;;;;5.53;4.28;;;10.30;84.90;;;;;;5093335;28;20436;-44
2024/01/21 03:52:48;;;;;;;6.40;4.28;;;10.60;85.20;;;;;;5093355;28;20080;-39
2024/01/21 03:55:17;;;;;;;6.30;4.22;;;11.00;83.50;;;;;;5093317;28;20079;-43
2024/01/21 03:57:43;;;;;;;6.40;4.25;;;11.00;82.30;;;;;;5091014;28;20016;-43
2024/01/21 04:00:10;;;;;;;6.40;4.05;;;11.00;82.00;;;;;;5092050;28;20032;-44
2024/01/21 04:02:36;;;;;;;5.75;3.95;;;10.90;82.00;;;;;;5093668;28;20020;-44
2024/01/21 04:05:03;;;;;;;5.75;4.10;;;10.70;82.10;;;;;;5093112;28;20024;-44
2024/01/21 04:07:29;;;;;;;6.90;4.22;;;10.60;82.50;;;;;;5093605;28;20020;-44
2024/01/21 04:09:55;;;;;;;6.10;3.75;;;10.40;83.20;;;;;;5092857;28;20019;-43
2024/01/21 04:12:20;;;;;;;6.22;3.92;;;10.40;84.80;;;;;;5092815;28;20477;-40
2024/01/21 04:14:46;;;;;;;6.28;4.28;;;10.70;85.00;;;;;;5093362;28;20028;-44
2024/01/21 04:17:11;;;;;;;7.45;4.57;;;11.00;83.20;;;;;;5092986;28;20359;-43
2024/01/21 04:19:37;;;;;;;4.95;3.70;;;11.10;82.20;;;;;;5092806;28;20066;-42
2024/01/21 04:22:03;;;;;;;4.88;3.47;;;11.00;81.80;;;;;;5092749;28;20413;-43
2024/01/21 04:24:29;;;;;;;4.40;3.53;;;10.90;81.90;;;;;;5092689;28;20410;-40
2024/01/21 04:26:55;;;;;;;5.72;3.90;;;10.70;82.10;;;;;;5092425;28;20020;-43
2024/01/21 04:29:21;;;;;;;5.32;3.75;;;10.60;82.40;;;;;;5093448;28;20024;-44
2024/01/21 04:31:46;;;;;;;5.25;3.60;;;10.40;83.40;;;;;;5093887;28;20021;-38
2024/01/21 04:34:12;;;;;;;5.45;3.63;;;10.40;84.70;;;;;;5093014;28;20512;-41
2024/01/21 04:36:38;;;;;;;4.60;3.70;;;10.70;84.70;;;;;;5092416;28;20078;-43
2024/01/21 04:39:03;;;;;;;5.25;3.58;;;11.00;82.90;;;;;;5092765;28;20024;-42
2024/01/21 04:41:29;;;;;;;4.88;3.53;;;11.00;81.90;;;;;;5093088;28;20035;-40
2024/01/21 04:43:56;;;;;;;7.13;3.63;;;10.90;81.60;;;;;;5092271;28;20024;-43
2024/01/21 04:46:22;;;;;;;5.03;3.65;;;10.80;81.70;;;;;;5092133;28;20035;-44
2024/01/21 04:48:48;;;;;;;6.40;3.70;;;10.70;82.00;;;;;;5092214;28;20020;-43
2024/01/21 04:51:14;;;;;;;5.13;3.70;;;10.50;82.20;;;;;;5092245;28;20028;-44
2024/01/21 04:53:40;;;;;;;4.85;3.30;;;10.40;83.40;;;;;;5092610;28;20021;-44
2024/01/21 04:56:06;;;;;;;5.90;3.55;;;10.40;84.70;;;;;;5091918;28;20499;-43
2024/01/21 04:58:33;;;;;;;4.85;3.40;;;10.70;84.40;;;;;;5092026;28;20039;-43
2024/01/21 05:00:58;;;;;;;5.30;3.42;;;11.00;82.70;;;;;;5092096;28;20117;-43
2024/01/21 05:03:24;;;;;;;4.68;3.15;;;11.00;81.80;;;;;;5092826;28;20028;-43
2024/01/21 05:05:50;;;;;;;5.13;3.38;;;10.90;81.60;;;;;;5092185;28;20114;-40
2024/01/21 05:08:16;;;;;;;4.93;3.40;;;10.80;81.70;;;;;;5091338;28;20024;-43
2024/01/21 05:10:41;;;;;;;4.80;3.00;;;10.60;81.90;;;;;;5091238;28;20033;-40
2024/01/21 05:13:07;;;;;;;5.03;3.50;;;10.50;82.30;;;;;;5091789;28;20016;-43
2024/01/21 05:15:33;;;;;;;6.05;3.75;;;10.40;83.70;;;;;;5091793;28;20485;-43
2024/01/21 05:17:58;;;;;;;6.57;3.30;;;10.40;84.70;;;;;;5091675;28;20089;-43
2024/01/21 05:20:24;;;;;;;5.30;3.60;;;10.80;84.40;;;;;;5092369;28;20454;-44
2024/01/21 05:22:54;;;;;;;5.10;3.40;;;11.00;82.60;;;;;;5091692;28;20035;-43
2024/01/21 05:25:20;;;;;;;4.50;3.15;;;11.10;81.90;;;;;;5091695;28;20055;-37
2024/01/21 05:27:45;;;;;;;4.70;3.05;;;11.00;81.60;;;;;;5092018;28;20470;-44
2024/01/21 05:30:12;;;;;;;5.25;3.45;;;10.80;81.70;;;;;;5091830;28;20454;-44
2024/01/21 05:32:38;;;;;;;4.60;3.17;;;10.60;81.90;;;;;;5091557;28;20409;-42
2024/01/21 05:35:04;;;;;;;4.63;3.33;;;10.50;82.30;;;;;;5091567;28;20024;-44
2024/01/21 05:37:30;;;;;;;4.88;3.17;;;10.40;83.80;;;;;;5091446;28;20047;-43
2024/01/21 05:39:56;;;;;;;4.13;3.00;;;10.50;84.80;;;;;;5091198;28;20052;-44
2024/01/21 05:42:21;;;;;;;5.30;3.40;;;10.90;84.30;;;;;;5091495;28;20032;-44
2024/01/21 05:44:47;;;;;;;3.30;2.85;;;11.10;82.50;;;;;;5092284;28;20036;-44
2024/01/21 05:47:12;;;;;;;7.18;3.38;;;11.00;81.80;;;;;;5091272;28;20028;-44
2024/01/21 05:49:39;;;;;;;5.03;3.40;;;10.90;81.70;;;;;;5091334;28;20385;-43
2024/01/21 05:52:04;;;;;;;5.25;3.55;;;10.80;81.80;;;;;;5091728;28;20024;-42
2024/01/21 05:54:30;;;;;;;4.70;3.47;;;10.60;82.10;;;;;;5091104;28;20094;-44
2024/01/21 05:56:56;;;;;;;5.72;3.42;;;10.50;82.40;;;;;;5091432;28;20042;-42
2024/01/21 05:59:21;;;;;;;4.60;3.15;;;10.40;84.00;;;;;;5091207;28;20032;-44
2024/01/21 06:01:49;;;;;;;6.82;3.22;;;10.50;85.00;;;;;;5091279;28;20031;-43
2024/01/21 06:04:15;;;;;;;5.68;3.40;;;10.80;84.20;;;;;;5091222;28;20515;-44
2024/01/21 06:06:41;;;;;;;5.40;2.90;;;11.00;82.60;;;;;;5091133;28;20068;-44
2024/01/21 06:09:06;;;;;;;5.47;3.13;;;11.00;81.90;;;;;;5090932;28;20059;-44
2024/01/21 06:11:32;;;;;;;4.45;3.00;;;10.90;81.70;;;;;;5092209;28;20024;-43
2024/01/21 06:13:57;;;;;;;4.50;3.00;;;10.80;82.00;;;;;;5091043;28;20386;-43
2024/01/21 06:16:23;;;;;;;4.85;2.95;;;10.60;82.20;;;;;;5091886;28;20050;-44
2024/01/21 06:18:48;;;;;;;5.75;3.30;;;10.50;82.50;;;;;;5092727;28;20061;-40
2024/01/21 06:21:17;;;;;;;4.90;3.22;;;10.40;84.30;;;;;;5093899;28;20024;-41
2024/01/21 06:23:44;;;;;;;5.75;3.45;;;10.50;85.00;;;;;;5095183;28;20431;-43
2024/01/21 06:26:17;;;;;;;5.22;3.40;;;10.90;84.00;;;;;;5095179;28;20024;-43
2024/01/21 06:28:43;;;;;;;4.80;3.10;;;11.10;82.40;;;;;;5095120;28;20081;-43
2024/01/21 06:31:09;;;;;;;5.00;3.28;;;11.00;81.80;;;;;;5094930;28;20016;-43
2024/01/21 06:33:34;;;;;;;5.22;3.28;;;10.90;81.80;;;;;;5095116;28;20032;-44
2024/01/21 06:36:00;;;;;;;4.90;3.00;;;10.70;82.00;;;;;;5094719;28;20017;-43
2024/01/21 06:38:25;;;;;;;5.45;3.33;;;10.60;82.20;;;;;;5094595;28;20032;-44
2024/01/21 06:40:52;;;;;;;4.45;3.25;;;10.50;82.60;;;;;;5095078;28;20038;-44
2024/01/21 06:43:18;;;;;;;5.30;2.90;;;10.30;84.50;;;;;;5095141;28;20401;-44
2024/01/21 06:45:44;;;;;;;5.60;3.53;;;10.60;85.10;;;;;;5094684;28;20038;-42
2024/01/21 06:48:09;;;;;;;4.25;2.90;;;11.00;83.60;;;;;;5094754;28;20093;-39
2024/01/21 06:50:35;;;;;;;5.65;3.13;;;11.10;82.20;;;;;;5095064;28;20024;-44
2024/01/21 06:53:00;;;;;;;5.72;3.55;;;11.00;81.80;;;;;;5094334;28;20111;-43
2024/01/21 06:55:26;;;;;;;4.28;3.05;;;10.90;81.80;;;;;;5095476;28;20024;-40
2024/01/21 06:57:52;;;;;;;4.65;3.22;;;10.70;81.90;;;;;;5094782;28;20073;-44
2024/01/21 07:00:18;;;;;;;4.38;3.05;;;10.60;82.20;;;;;;5094317;28;20054;-44
2024/01/21 07:02:43;;;;;;;4.70;3.40;;;10.40;82.50;;;;;;5094266;28;20032;-43
2024/01/21 07:05:09;;;;;;;4.68;3.30;;;10.40;84.50;;;;;;5094200;28;20382;-43
2024/01/21 07:07:35;;;;;;;4.88;3.35;;;10.60;84.80;;;;;;5093912;28;20066;-43
2024/01/21 07:10:01;;;;;;;5.35;3.40;;;11.00;83.20;;;;;;5094157;28;20516;-42
2024/01/21 07:12:27;;;;;;;4.68;3.58;;;11.00;82.00;;;;;;5094220;28;20481;-44
2024/01/21 07:14:52;;;;;;;4.60;3.00;;;11.00;81.60;;;;;;5094078;28;20069;-44
2024/01/21 07:17:18;;;;;;;4.63;3.38;;;10.90;81.70;;;;;;5094034;28;20039;-44
2024/01/21 07:19:44;;;;;;;4.65;3.13;;;10.90;82.00;;;;;;5093815;28;20500;-44
2024/01/21 07:22:10;;;;;;;4.47;3.00;;;10.80;82.40;;;;;;5093908;28;20032;-43
2024/01/21 07:24:36;;;;;;;4.55;3.35;;;10.70;82.60;;;;;;5093751;28;20637;-41
2024/01/21 07:27:01;;;;;;;4.60;3.17;;;10.70;83.80;;;;;;5093747;28;20482;-44
2024/01/21 07:29:27;;;;;;;5.97;3.72;;;11.00;83.90;;;;;;5093664;28;20050;-42
2024/01/21 07:31:53;;;;;;;6.63;3.63;;;11.40;82.20;;;;;;5092743;28;20054;-43
2024/01/21 07:34:19;;;;;;;4.32;3.05;;;11.50;81.00;;;;;;5093844;28;20095;-44
2024/01/21 07:36:45;;;;;;;4.18;3.10;;;11.50;80.60;;;;;;5093821;28;20035;-39
2024/01/21 07:39:11;;;;;;;4.80;3.20;;;11.50;80.80;;;;;;5094056;28;20016;-43
2024/01/21 07:41:37;;;;;;;4.60;3.25;;;11.50;80.90;;;;;;5092279;28;20032;-43
2024/01/21 07:44:02;;;;;;;4.22;3.10;;;11.50;81.00;;;;;;5093613;28;20086;-40
2024/01/21 07:46:28;;;;;;;5.20;3.83;;;11.50;81.20;;;;;;5093370;28;20417;-43
2024/01/21 07:48:54;;;;;;;6.65;3.45;;;11.40;81.90;;;;;;5093279;28;20074;-40
2024/01/21 07:51:20;;;;;;;6.07;3.72;;;11.70;82.10;;;;;;5093300;28;20486;-37
2024/01/21 07:53:45;;;;;;;5.35;4.18;;;12.00;80.40;;;;;;5093307;28;20021;-43
2024/01/21 07:56:12;;;;;;;5.70;3.92;;;12.10;79.30;;;;;;5093208;28;20028;-44
2024/01/21 07:58:38;;;;;;;5.45;3.30;;;12.20;79.10;;;;;;5093199;28;20028;-42
2024/01/21 08:01:10;;;;;;;5.18;3.58;;;12.10;79.20;;;;;;5093237;28;20032;-44
2024/01/21 08:03:36;;;;;;;4.82;3.15;;;12.10;79.20;;;;;;5092985;28;20059;-43
2024/01/21 08:06:04;;;;;;;5.07;3.63;;;12.20;79.30;;;;;;5093089;28;20020;-44
2024/01/21 08:08:30;;;;;;;4.95;3.60;;;12.10;79.30;;;;;;5092876;28;20016;-43
2024/01/21 08:10:56;;;;;;;5.20;3.58;;;12.10;80.10;;;;;;5093060;28;20016;-43
2024/01/21 08:13:21;;;;;;;5.65;4.00;;;12.30;80.40;;;;;;5092962;28;20024;-40
2024/01/21 08:15:47;;;;;;;5.78;3.95;;;12.60;79.00;;;;;;5092957;28;20501;-43
2024/01/21 08:18:13;;;;;;;5.00;3.47;;;12.70;78.00;;;;;;5092587;28;20032;-44
2024/01/21 08:20:38;;;;;;;6.00;4.10;;;12.70;77.80;;;;;;5092839;28;20136;-44
2024/01/21 08:23:04;;;;;;;4.25;3.70;;;12.70;77.90;;;;;;5092723;28;20028;-41
2024/01/21 08:25:30;;;;;;;5.75;3.60;;;12.70;77.90;;;;;;5093695;28;20115;-41
2024/01/21 08:27:55;;;;;;;4.30;3.03;;;12.70;77.90;;;;;;5091166;28;20166;-41
2024/01/21 08:30:21;;;;;;;6.85;4.03;;;12.60;78.00;;;;;;5092938;28;20103;-43
2024/01/21 08:32:46;;;;;;;4.80;3.80;;;12.60;78.60;;;;;;5092387;28;20024;-37
2024/01/21 08:35:13;;;;;;;7.38;4.35;;;12.70;79.10;;;;;;5091422;28;20288;-43
2024/01/21 08:37:38;;;;;;;8.20;4.00;;;13.00;78.10;;;;;;5092404;28;20105;-43
2024/01/21 08:40:05;;;;;;;5.10;3.78;;;13.20;77.00;;;;;;5093008;28;20056;-41
2024/01/21 08:42:30;;;;;;;4.90;3.40;;;13.10;76.70;;;;;;5092439;28;20036;-43
2024/01/21 08:44:56;;;;;;;5.80;3.85;;;13.10;76.90;;;;;;5092074;28;20030;-43
2024/01/21 08:47:22;;;;;;;5.30;3.40;;;13.10;76.90;;;;;;5092080;28;20063;-44
2024/01/21 08:49:48;;;;;;;5.45;3.55;;;13.10;77.00;;;;;;5092277;28;20048;-44
2024/01/21 08:52:13;;;;;;;4.97;3.97;;;13.00;77.10;;;;;;5090859;28;20032;-43
2024/01/21 08:54:39;;;;;;;4.95;3.83;;;13.00;77.70;;;;;;5092166;28;20031;-43
2024/01/21 08:57:05;;;;;;;5.18;4.13;;;13.00;78.30;;;;;;5092180;28;20070;-43
2024/01/21 08:59:30;;;;;;;5.57;4.10;;;13.30;77.90;;;;;;5092032;28;20031;-43
2024/01/21 09:01:56;;;;;;;5.30;3.75;;;13.40;76.40;;;;;;5091955;28;20477;-43
2024/01/21 09:04:21;;;;;;;4.78;3.75;;;13.40;76.10;;;;;;5091975;28;20415;-43
2024/01/21 09:06:47;;;;;;;5.07;3.63;;;13.40;76.20;;;;;;5091848;28;20042;-43
2024/01/21 09:09:13;;;;;;;5.57;3.55;;;13.40;76.30;;;;;;5091856;28;20039;-44
2024/01/21 09:11:39;;;;;;;4.43;3.30;;;13.30;76.30;;;;;;5091972;28;20020;-40
2024/01/21 09:14:06;;;;;;;4.50;3.47;;;13.30;76.40;;;;;;5091814;28;20458;-44
2024/01/21 09:16:35;;;;;;;4.78;3.95;;;13.30;76.70;;;;;;5091601;28;20020;-44
2024/01/21 09:19:01;;;;;;;5.25;3.63;;;13.20;77.50;;;;;;5091635;28;20161;-44
2024/01/21 09:21:27;;;;;;;5.68;4.15;;;13.40;77.60;;;;;;5091772;28;20099;-40
2024/01/21 09:23:55;;;;;;;6.28;4.45;;;13.60;76.20;;;;;;5091571;28;20099;-41
2024/01/21 09:26:21;;;;;;;3.67;3.22;;;13.60;75.70;;;;;;5092291;28;20016;-44
2024/01/21 09:28:46;;;;;;;5.50;3.65;;;13.50;75.80;;;;;;5091431;28;20048;-44
2024/01/21 09:31:12;;;;;;;4.60;3.22;;;13.50;75.80;;;;;;5091435;28;20109;-41
2024/01/21 09:33:37;;;;;;;4.43;3.15;;;13.50;75.90;;;;;;5092067;28;20024;-43
2024/01/21 09:36:04;;;;;;;4.50;3.45;;;13.50;76.00;;;;;;5091538;28;20426;-43
2024/01/21 09:38:29;;;;;;;4.60;3.72;;;13.50;76.00;;;;;;5089766;28;20020;-44
2024/01/21 09:41:24;;;;;;;4.80;3.63;;;13.30;76.80;;;;;;5091741;28;20020;-44
2024/01/21 09:43:49;;;;;;;12.55;9.25;;;13.50;77.20;;;;;;5091762;28;20020;-44
2024/01/21 09:46:15;;;;;;;125.93;64.95;;;13.80;74.10;;;;;;5091516;28;20478;-42
2024/01/21 09:48:41;;;;;;;86.18;46.70;;;13.80;71.10;;;;;;5091515;28;20024;-44
2024/01/21 09:51:08;;;;;;;103.45;54.53;;;13.70;71.70;;;;;;5091975;28;20385;-42
2024/01/21 09:53:34;;;;;;;91.88;49.28;;;13.60;72.10;;;;;;5091532;28;20231;-44
2024/01/21 09:56:06;;;;;;;91.93;47.78;;;13.60;72.60;;;;;;5096060;28;20032;-43
2024/01/21 09:58:36;;;;;;;88.00;47.13;;;13.60;73.80;;;;;;5097966;28;20053;-43
2024/01/21 10:01:02;;;;;;;90.82;49.53;;;13.60;73.50;;;;;;5099953;28;20024;-44
2024/01/21 10:03:29;;;;;;;86.20;48.00;;;13.50;74.60;;;;;;5097744;28;20110;-44
2024/01/21 10:05:54;;;;;;;92.18;50.58;;;13.70;74.90;;;;;;5097958;28;20047;-42
2024/01/21 10:08:20;;;;;;;83.63;46.35;;;14.00;73.60;;;;;;5097761;28;20382;-43
2024/01/21 10:10:45;;;;;;;80.07;44.60;;;14.00;73.40;;;;;;5098792;28;20020;-43
2024/01/21 10:13:11;;;;;;;76.75;42.75;;;13.90;73.50;;;;;;5097813;28;20035;-43
2024/01/21 10:15:36;;;;;;;73.95;41.65;;;13.90;73.60;;;;;;5097709;28;20106;-44
2024/01/21 10:18:02;;;;;;;69.22;38.70;;;13.90;73.70;;;;;;5097727;28;20040;-44
2024/01/21 10:20:28;;;;;;;68.68;39.67;;;13.90;73.80;;;;;;5097758;28;20023;-44
2024/01/21 10:23:11;;;;;;;76.22;42.85;;;13.90;73.90;;;;;;5096543;28;20024;-43
2024/01/21 10:25:40;;;;;;;75.65;40.75;;;13.80;74.80;;;;;;5097755;28;20028;-43
2024/01/21 10:28:06;;;;;;;76.78;42.17;;;13.90;75.30;;;;;;5097601;28;20089;-44
2024/01/21 10:30:31;;;;;;;73.22;40.97;;;14.20;74.10;;;;;;5098869;28;20027;-44
2024/01/21 10:32:57;;;;;;;69.28;39.33;;;14.20;73.60;;;;;;5097608;28;20103;-43
2024/01/21 10:35:23;;;;;;;65.00;37.83;;;14.20;73.70;;;;;;5097721;28;20062;-44
2024/01/21 10:37:49;;;;;;;64.82;35.75;;;14.20;73.80;;;;;;5097615;28;20499;-43
2024/01/21 10:40:15;;;;;;;62.42;35.13;;;14.20;73.80;;;;;;5097675;28;20059;-44
2024/01/21 10:42:41;;;;;;;61.20;34.08;;;14.20;73.80;;;;;;5097519;28;20055;-44
2024/01/21 10:45:07;;;;;;;60.90;34.05;;;14.10;73.80;;;;;;5097619;28;20133;-43
2024/01/21 10:47:34;;;;;;;60.33;32.42;;;14.20;73.90;;;;;;5098219;28;20020;-45
2024/01/21 10:50:02;;;;;;;57.25;30.80;;;14.10;73.90;;;;;;5097497;28;20020;-44
2024/01/21 10:52:28;;;;;;;53.55;30.60;;;14.10;73.90;;;;;;5097172;28;20477;-43
2024/01/21 10:54:57;;;;;;;52.88;30.55;;;14.10;74.00;;;;;;5097522;28;20054;-42
2024/01/21 10:57:22;;;;;;;53.00;30.50;;;14.10;74.00;;;;;;5097423;28;20024;-43
2024/01/21 10:59:48;;;;;;;50.15;28.52;;;14.10;74.10;;;;;;5097663;28;20119;-43
2024/01/21 11:02:14;;;;;;;52.50;29.20;;;14.10;74.20;;;;;;5097478;28;20032;-44
2024/01/21 11:04:41;;;;;;;47.97;27.95;;;14.00;74.20;;;;;;5097443;28;20448;-43
2024/01/21 11:07:11;;;;;;;46.72;27.38;;;14.00;74.30;;;;;;5095590;28;20024;-44
2024/01/21 11:09:38;;;;;;;47.63;28.58;;;14.00;75.20;;;;;;5094213;28;20077;-42
2024/01/21 11:12:04;;;;;;;48.20;27.65;;;13.90;75.20;;;;;;5094061;28;20079;-43
2024/01/21 11:14:30;;;;;;;45.85;26.58;;;13.90;74.50;;;;;;5094059;28;20522;-43
2024/01/21 11:16:57;;;;;;;43.70;25.42;;;13.90;74.60;;;;;;5094008;28;20035;-43
2024/01/21 11:19:24;;;;;;;45.95;26.60;;;13.90;74.60;;;;;;5094091;28;20017;-43
2024/01/21 11:21:55;;;;;;;42.05;24.65;;;13.90;74.70;;;;;;5094001;28;20028;-44
2024/01/21 11:24:29;;;;;;;38.78;23.55;;;13.80;74.70;;;;;;5093669;28;20478;-42
2024/01/21 11:26:56;;;;;;;42.20;24.20;;;13.80;74.80;;;;;;5093807;28;20096;-43
2024/01/21 11:29:32;;;;;;;41.00;24.20;;;13.80;74.80;;;;;;5094649;28;20466;-43
2024/01/21 11:32:03;;;;;;;40.80;23.73;;;13.80;74.80;;;;;;5093805;28;20032;-43
2024/01/21 11:34:39;;;;;;;41.80;23.35;;;13.80;74.90;;;;;;5093706;28;20024;-44
2024/01/21 11:37:06;;;;;;;37.05;22.90;;;13.80;74.90;;;;;;5093613;28;20039;-43
2024/01/21 11:39:31;;;;;;;37.13;23.20;;;13.80;75.00;;;;;;5093463;28;20027;-44
2024/01/21 11:41:57;;;;;;;35.47;21.98;;;13.80;75.00;;;;;;5093625;28;20024;-44
2024/01/21 11:44:27;;;;;;;33.40;20.77;;;13.80;75.00;;;;;;5093343;28;20474;-41
2024/01/21 11:46:55;;;;;;;35.50;20.83;;;13.80;75.10;;;;;;5093490;28;20054;-43
2024/01/21 11:49:21;;;;;;;36.15;21.35;;;13.70;75.00;;;;;;5093130;28;20024;-44
2024/01/21 11:51:47;;;;;;;38.42;21.98;;;13.70;75.10;;;;;;5093577;28;20375;-44
2024/01/21 11:54:13;;;;;;;37.25;20.80;;;13.70;75.10;;;;;;5093304;28;20020;-44
2024/01/21 11:56:40;;;;;;;34.83;20.10;;;13.70;75.20;;;;;;5093251;28;20013;-44
2024/01/21 11:59:08;;;;;;;36.47;20.50;;;13.70;75.20;;;;;;5093059;28;20074;-44
2024/01/21 12:01:35;;;;;;;32.42;18.83;;;13.70;75.30;;;;;;5094636;28;20027;-44
2024/01/21 12:04:02;;;;;;;32.67;19.00;;;13.70;75.30;;;;;;5093552;28;20020;-44
2024/01/21 12:06:29;;;;;;;35.85;20.67;;;13.70;75.40;;;;;;5093040;28;20020;-43
2024/01/21 12:08:55;;;;;;;31.33;18.48;;;13.70;75.40;;;;;;5092960;28;20032;-44
2024/01/21 12:11:20;;;;;;;30.85;18.98;;;13.70;75.50;;;;;;5093485;28;20124;-43
2024/01/21 12:13:46;;;;;;;31.40;18.67;;;13.70;75.50;;;;;;5093271;28;20035;-44
2024/01/21 12:16:12;;;;;;;30.60;18.13;;;13.70;75.60;;;;;;5091435;28;20069;-44
2024/01/21 12:18:42;;;;;;;27.80;16.98;;;13.70;75.70;;;;;;5092556;28;20020;-44
2024/01/21 12:21:11;;;;;;;27.05;16.42;;;13.70;75.70;;;;;;5093157;28;20023;-44
2024/01/21 12:23:43;;;;;;;29.58;17.08;;;13.70;75.80;;;;;;5093800;28;20397;-44
2024/01/21 12:26:09;;;;;;;26.83;16.80;;;13.70;75.90;;;;;;5092543;28;20023;-43
2024/01/21 12:28:34;;;;;;;28.15;16.33;;;13.80;76.00;;;;;;5092503;28;20028;-43
2024/01/21 12:31:00;;;;;;;26.15;15.95;;;13.80;76.00;;;;;;5091355;28;20493;-44
2024/01/21 12:33:26;;;;;;;20.58;12.43;;;13.80;76.00;;;;;;5074841;28;20024;-44
2024/01/21 12:35:52;;;;;;;17.10;9.57;;;13.90;75.80;;;;;;5072343;28;20031;-43
2024/01/21 12:38:18;;;;;;;15.65;8.90;;;13.90;75.30;;;;;;5072124;28;20032;-44